Time;durP1;ratioP1;P1;durP2;ratioP2;P2;SDS_P1;SDS_P2;PMS_P1;PMS_P2;Temp;Humidity;BMP_temperature;BMP_pressure;BME280_temperature;BME280_humidity;BME280_pressure;Samples;Min_cycle;Max_cycle;Signal;HPM_P1;HPM_P2
2022/03/03 00:02:02;;;;;;;24.92;13.27;;;1.40;54.20;;;;;;5086547;28;20063;-64
2022/03/03 00:04:28;;;;;;;22.80;11.82;;;1.40;54.10;;;;;;5085972;28;20024;-65
2022/03/03 00:06:54;;;;;;;25.58;12.60;;;1.50;54.20;;;;;;5086343;28;20033;-64
2022/03/03 00:09:20;;;;;;;27.10;12.43;;;1.30;54.20;;;;;;5086325;28;20067;-63
2022/03/03 00:11:45;;;;;;;25.60;12.48;;;1.30;54.20;;;;;;5086763;28;20071;-64
2022/03/03 00:14:11;;;;;;;21.27;10.77;;;1.30;54.50;;;;;;5085204;28;20024;-64
2022/03/03 00:16:37;;;;;;;18.35;10.35;;;1.30;54.50;;;;;;5082814;28;22144;-64
2022/03/03 00:19:03;;;;;;;20.27;11.23;;;1.30;54.70;;;;;;5084672;28;20088;-65
2022/03/03 00:21:29;;;;;;;21.90;11.10;;;1.20;54.60;;;;;;5082345;28;20028;-63
2022/03/03 00:23:55;;;;;;;19.67;11.27;;;1.30;54.60;;;;;;5083617;28;20047;-63
2022/03/03 00:26:20;;;;;;;26.67;11.38;;;1.20;55.10;;;;;;5085520;28;20039;-64
2022/03/03 00:28:46;;;;;;;24.63;11.55;;;1.20;54.50;;;;;;5084463;28;20040;-63
2022/03/03 00:31:12;;;;;;;24.67;11.23;;;1.20;54.50;;;;;;5077811;28;20513;-63
2022/03/03 00:33:38;;;;;;;21.50;11.65;;;1.20;54.50;;;;;;5082783;28;20060;-64
2022/03/03 00:36:04;;;;;;;21.52;10.90;;;1.40;54.70;;;;;;5082372;28;20067;-65
2022/03/03 00:38:29;;;;;;;18.33;10.52;;;1.30;54.80;;;;;;5084683;28;20119;-64
2022/03/03 00:40:55;;;;;;;19.73;11.57;;;1.10;54.60;;;;;;5078195;28;20056;-64
2022/03/03 00:43:20;;;;;;;22.80;11.95;;;1.10;54.50;;;;;;5084564;28;20032;-64
2022/03/03 00:45:46;;;;;;;19.40;10.75;;;1.10;54.50;;;;;;5085093;28;20025;-64
2022/03/03 00:48:12;;;;;;;18.60;11.40;;;1.00;54.40;;;;;;5083895;28;20046;-63
2022/03/03 00:50:38;;;;;;;18.23;10.82;;;1.00;54.40;;;;;;5085567;28;20052;-64
2022/03/03 00:53:04;;;;;;;30.42;11.52;;;1.20;54.70;;;;;;5084911;28;20017;-64
2022/03/03 00:55:30;;;;;;;19.65;11.52;;;1.00;54.70;;;;;;5085813;28;20070;-63
2022/03/03 00:57:56;;;;;;;23.92;10.27;;;1.00;54.60;;;;;;5085562;28;20056;-63
2022/03/03 01:00:22;;;;;;;22.27;12.23;;;0.90;54.50;;;;;;5082568;28;20452;-64
2022/03/03 01:02:49;;;;;;;21.90;11.52;;;1.10;54.70;;;;;;5083747;28;20035;-63
2022/03/03 01:05:15;;;;;;;18.75;10.52;;;0.90;54.60;;;;;;5086331;28;20093;-65
2022/03/03 01:07:42;;;;;;;23.35;10.38;;;0.90;54.60;;;;;;5084306;28;20032;-64
2022/03/03 01:10:09;;;;;;;22.70;11.70;;;0.90;54.50;;;;;;5085696;28;20454;-63
2022/03/03 01:12:35;;;;;;;19.13;10.27;;;0.80;54.60;;;;;;5084055;28;20017;-64
2022/03/03 01:15:02;;;;;;;15.85;9.43;;;0.80;54.60;;;;;;5085902;28;20040;-64
2022/03/03 01:17:28;;;;;;;16.35;9.63;;;0.80;54.70;;;;;;5083871;28;20029;-63
2022/03/03 01:19:53;;;;;;;18.52;9.52;;;0.80;54.70;;;;;;5085971;28;20062;-63
2022/03/03 01:22:19;;;;;;;16.42;10.25;;;1.00;55.00;;;;;;5086082;28;20059;-63
2022/03/03 01:24:45;;;;;;;20.40;11.35;;;0.70;55.10;;;;;;5086220;28;20040;-64
2022/03/03 01:27:12;;;;;;;16.35;9.93;;;0.70;55.10;;;;;;5083731;28;20058;-64
2022/03/03 01:29:38;;;;;;;19.90;9.50;;;0.60;55.00;;;;;;5085467;28;20040;-64
2022/03/03 01:32:06;;;;;;;21.23;10.23;;;0.90;55.10;;;;;;5097204;28;20031;-64
2022/03/03 01:34:32;;;;;;;18.45;9.82;;;0.60;55.10;;;;;;5086397;28;20143;-66
2022/03/03 01:36:58;;;;;;;18.15;11.00;;;0.60;55.30;;;;;;5084827;28;20017;-63
2022/03/03 01:39:23;;;;;;;18.50;10.48;;;0.80;55.40;;;;;;5082786;28;20025;-65
2022/03/03 01:41:49;;;;;;;18.65;9.35;;;0.70;55.20;;;;;;5083911;28;20036;-64
2022/03/03 01:44:15;;;;;;;21.55;9.82;;;0.50;55.10;;;;;;5081692;28;20027;-65
2022/03/03 01:46:57;;;;;;;23.05;10.20;;;0.50;55.10;;;;;;5083883;28;20025;-64
2022/03/03 01:49:24;;;;;;;22.33;10.45;;;0.50;55.60;;;;;;5081249;28;20024;-63
2022/03/03 01:51:51;;;;;;;19.70;10.20;;;0.50;55.30;;;;;;5084353;28;20028;-64
2022/03/03 01:54:17;;;;;;;18.95;9.57;;;0.50;55.20;;;;;;5083789;28;20032;-63
2022/03/03 01:56:44;;;;;;;22.75;10.25;;;0.70;55.30;;;;;;5084646;28;20085;-64
2022/03/03 01:59:10;;;;;;;19.50;10.13;;;0.40;55.10;;;;;;5083984;28;20073;-64
2022/03/03 02:01:37;;;;;;;21.25;9.95;;;0.40;55.30;;;;;;5074671;28;20048;-63
2022/03/03 02:04:08;;;;;;;19.08;10.10;;;0.40;55.20;;;;;;5083205;28;20459;-64
2022/03/03 02:06:34;;;;;;;18.45;10.35;;;0.40;55.60;;;;;;5079640;28;20530;-64
2022/03/03 02:09:00;;;;;;;17.20;9.73;;;0.40;55.60;;;;;;5082863;28;20131;-65
2022/03/03 02:11:26;;;;;;;15.02;9.07;;;0.40;55.50;;;;;;5084916;28;20089;-64
2022/03/03 02:13:52;;;;;;;17.52;9.65;;;0.30;55.50;;;;;;5081329;28;20020;-64
2022/03/03 02:16:17;;;;;;;17.45;10.07;;;0.30;55.40;;;;;;5084850;28;20059;-63
2022/03/03 02:18:44;;;;;;;17.33;9.50;;;0.30;55.30;;;;;;5084252;28;20078;-63
2022/03/03 02:21:15;;;;;;;15.07;9.13;;;0.30;55.30;;;;;;5077633;28;20092;-65
2022/03/03 02:23:41;;;;;;;19.70;9.93;;;0.30;55.40;;;;;;5075471;28;20119;-64
2022/03/03 02:26:17;;;;;;;18.50;9.77;;;0.30;55.20;;;;;;5081678;28;20035;-64
2022/03/03 02:28:43;;;;;;;17.80;10.13;;;0.40;55.50;;;;;;5080928;28;20037;-63
2022/03/03 02:31:09;;;;;;;19.90;9.93;;;0.20;55.30;;;;;;5081182;28;20021;-64
2022/03/03 02:33:35;;;;;;;19.50;9.25;;;0.20;55.40;;;;;;5080706;28;20099;-64
2022/03/03 02:36:33;;;;;;;18.40;9.63;;;0.20;55.70;;;;;;5071629;28;20155;-63
2022/03/03 02:39:01;;;;;;;14.23;8.73;;;0.20;56.20;;;;;;5001295;28;20049;-63
2022/03/03 02:41:28;;;;;;;16.23;8.50;;;0.20;55.40;;;;;;5002044;28;20034;-64
2022/03/03 02:43:54;;;;;;;17.25;9.80;;;0.40;55.30;;;;;;4998876;28;20026;-64
2022/03/03 02:46:20;;;;;;;17.90;9.60;;;0.10;55.40;;;;;;5000930;28;20031;-64
2022/03/03 02:48:46;;;;;;;18.42;9.90;;;0.20;55.60;;;;;;5001704;28;20042;-64
2022/03/03 02:51:12;;;;;;;22.63;10.32;;;0.10;55.70;;;;;;5007659;28;20034;-64
2022/03/03 02:53:38;;;;;;;20.27;9.93;;;0.10;55.70;;;;;;5005794;28;20030;-64
2022/03/03 02:56:06;;;;;;;20.83;11.32;;;0.10;55.90;;;;;;4999052;28;20041;-64
2022/03/03 02:58:32;;;;;;;21.80;10.63;;;0.10;56.30;;;;;;5000539;28;20752;-64
2022/03/03 03:00:59;;;;;;;19.75;10.13;;;0.10;56.60;;;;;;5002086;28;20576;-64
2022/03/03 03:03:25;;;;;;;19.77;10.00;;;0.10;56.30;;;;;;5001946;28;20047;-63
2022/03/03 03:05:51;;;;;;;20.15;9.90;;;0.10;56.30;;;;;;5000701;28;20032;-64
2022/03/03 03:08:17;;;;;;;15.60;10.18;;;0.10;56.60;;;;;;4997397;28;20434;-64
2022/03/03 03:10:42;;;;;;;18.58;9.70;;;0.10;56.60;;;;;;5001071;28;20023;-64
2022/03/03 03:13:12;;;;;;;20.15;11.02;;;0.10;56.60;;;;;;5001144;28;20058;-64
2022/03/03 03:15:41;;;;;;;16.58;9.77;;;0.30;56.60;;;;;;5072836;28;20062;-64
2022/03/03 03:18:14;;;;;;;19.80;9.68;;;0.10;56.50;;;;;;5083617;28;20025;-63
2022/03/03 03:20:42;;;;;;;16.25;7.82;;;0.10;56.30;;;;;;5077207;28;20054;-63
2022/03/03 03:23:09;;;;;;;18.38;10.45;;;0.40;56.30;;;;;;5083547;28;20056;-63
2022/03/03 03:25:37;;;;;;;18.08;10.23;;;0.20;56.20;;;;;;5081697;28;20040;-64
2022/03/03 03:28:05;;;;;;;20.40;9.88;;;0.10;56.10;;;;;;5082898;28;20463;-64
2022/03/03 03:30:31;;;;;;;16.25;9.52;;;0.00;56.10;;;;;;5082575;28;20033;-63
2022/03/03 03:32:57;;;;;;;16.50;9.60;;;0.00;56.00;;;;;;5083268;28;20028;-65
2022/03/03 03:35:23;;;;;;;16.63;9.80;;;0.00;56.10;;;;;;5084370;28;20388;-63
2022/03/03 03:37:49;;;;;;;14.82;8.35;;;0.00;56.10;;;;;;5090543;28;20008;-64
2022/03/03 03:40:15;;;;;;;19.30;10.02;;;0.10;56.10;;;;;;5093113;28;20036;-64
2022/03/03 03:42:41;;;;;;;17.27;10.35;;;-0.10;56.00;;;;;;5086785;28;20028;-63
2022/03/03 03:45:07;;;;;;;18.90;10.05;;;-0.10;56.00;;;;;;5086917;28;20020;-65
2022/03/03 03:47:34;;;;;;;18.50;9.75;;;-0.10;55.90;;;;;;5086556;28;20020;-65
2022/03/03 03:50:02;;;;;;;16.67;9.63;;;-0.10;55.90;;;;;;5078943;28;20032;-65
2022/03/03 03:52:31;;;;;;;18.20;9.73;;;-0.10;56.10;;;;;;5083939;28;20024;-63
2022/03/03 03:54:58;;;;;;;19.45;9.90;;;-0.10;56.30;;;;;;5085211;28;20051;-64
2022/03/03 03:57:23;;;;;;;16.92;9.65;;;-0.20;56.30;;;;;;5086744;28;20036;-66
2022/03/03 03:59:49;;;;;;;17.40;9.73;;;-0.20;56.10;;;;;;5085199;28;20115;-63
2022/03/03 04:02:15;;;;;;;18.05;8.57;;;-0.20;56.00;;;;;;5082891;28;20024;-64
2022/03/03 04:04:40;;;;;;;20.10;9.82;;;-0.20;55.90;;;;;;5086706;28;20034;-64
2022/03/03 04:07:06;;;;;;;17.65;10.13;;;-0.20;56.00;;;;;;5084907;28;20055;-64
2022/03/03 04:09:32;;;;;;;16.00;9.07;;;-0.30;56.00;;;;;;5082018;28;20024;-64
2022/03/03 04:11:57;;;;;;;20.30;10.23;;;-0.20;55.90;;;;;;5086076;28;20028;-63
2022/03/03 04:14:23;;;;;;;21.83;9.98;;;-0.30;55.80;;;;;;5084560;28;20052;-64
2022/03/03 04:16:49;;;;;;;20.25;10.93;;;-0.30;56.00;;;;;;5087408;28;20043;-63
2022/03/03 04:19:14;;;;;;;19.75;10.38;;;-0.30;56.20;;;;;;5082518;28;20020;-63
2022/03/03 04:21:40;;;;;;;17.25;9.65;;;-0.40;56.40;;;;;;5079847;28;20032;-63
2022/03/03 04:24:06;;;;;;;15.18;9.20;;;-0.40;56.30;;;;;;5085324;28;20028;-63
2022/03/03 04:26:34;;;;;;;18.63;9.48;;;-0.40;56.30;;;;;;5084032;28;20371;-63
2022/03/03 04:28:59;;;;;;;18.50;9.77;;;-0.30;56.40;;;;;;5081170;28;20055;-64
2022/03/03 04:31:25;;;;;;;21.77;10.32;;;-0.40;56.30;;;;;;5079692;28;20029;-63
2022/03/03 04:33:51;;;;;;;16.83;9.55;;;-0.40;56.20;;;;;;5084989;28;20021;-64
2022/03/03 04:36:17;;;;;;;16.77;9.90;;;-0.30;56.30;;;;;;5085432;28;20020;-63
2022/03/03 04:38:45;;;;;;;19.77;10.02;;;-0.50;56.00;;;;;;5083601;28;20054;-63
2022/03/03 04:41:10;;;;;;;18.58;9.10;;;-0.50;56.00;;;;;;5079678;28;20024;-63
2022/03/03 04:43:36;;;;;;;18.98;9.68;;;-0.50;56.20;;;;;;5084988;28;20150;-63
2022/03/03 04:46:02;;;;;;;17.48;9.68;;;-0.50;56.30;;;;;;5082491;28;20032;-66
2022/03/03 04:48:29;;;;;;;15.38;9.52;;;-0.50;56.20;;;;;;5081376;28;20111;-64
2022/03/03 04:50:58;;;;;;;16.73;9.27;;;-0.60;56.10;;;;;;5082196;28;21252;-63
2022/03/03 04:53:26;;;;;;;18.38;10.13;;;-0.60;56.40;;;;;;5092713;28;20029;-63
2022/03/03 04:55:52;;;;;;;20.33;9.63;;;-0.60;56.40;;;;;;5078742;28;20032;-63
2022/03/03 04:58:18;;;;;;;18.83;9.73;;;-0.60;56.40;;;;;;5084029;28;20084;-63
2022/03/03 05:00:44;;;;;;;19.27;10.50;;;-0.60;56.40;;;;;;5085383;28;20036;-62
2022/03/03 05:03:09;;;;;;;18.63;9.80;;;-0.60;56.40;;;;;;5076007;28;20091;-63
2022/03/03 05:05:35;;;;;;;17.95;9.82;;;-0.60;56.50;;;;;;5085250;28;20199;-63
2022/03/03 05:08:01;;;;;;;23.00;9.93;;;-0.50;56.50;;;;;;5084460;28;20040;-63
2022/03/03 05:10:27;;;;;;;20.08;9.95;;;-0.60;56.50;;;;;;5084465;28;20025;-64
2022/03/03 05:12:53;;;;;;;16.67;9.70;;;-0.60;56.80;;;;;;5085018;28;20031;-64
2022/03/03 05:15:19;;;;;;;22.77;10.43;;;-0.60;56.90;;;;;;5085829;28;20021;-64
2022/03/03 05:17:45;;;;;;;18.08;9.90;;;-0.70;56.90;;;;;;5072629;28;20024;-64
2022/03/03 05:20:12;;;;;;;18.65;9.90;;;-0.70;56.70;;;;;;5085604;28;20073;-63
2022/03/03 05:22:39;;;;;;;23.25;10.32;;;-0.70;56.60;;;;;;5084529;28;20024;-63
2022/03/03 05:25:05;;;;;;;20.00;9.68;;;-0.70;56.50;;;;;;5083645;28;20534;-63
2022/03/03 05:27:33;;;;;;;16.17;9.80;;;-0.70;56.40;;;;;;5084775;28;20039;-63
2022/03/03 05:29:59;;;;;;;24.40;10.73;;;-0.70;56.30;;;;;;5085365;28;20047;-63
2022/03/03 05:32:26;;;;;;;17.58;9.75;;;-0.70;56.40;;;;;;5082834;28;20025;-64
2022/03/03 05:34:52;;;;;;;23.73;9.50;;;-0.80;56.40;;;;;;5086033;28;20115;-62
2022/03/03 05:37:24;;;;;;;21.90;9.90;;;-0.80;56.60;;;;;;5100316;28;20035;-64
2022/03/03 05:39:51;;;;;;;19.23;9.90;;;-0.80;56.50;;;;;;5083998;28;20451;-62
2022/03/03 05:42:19;;;;;;;17.88;9.73;;;-0.60;56.60;;;;;;5072127;28;20150;-64
2022/03/03 05:44:46;;;;;;;16.60;9.23;;;-0.80;56.50;;;;;;5085238;28;20066;-63
2022/03/03 05:47:12;;;;;;;22.08;9.82;;;-0.90;56.50;;;;;;5094356;28;20072;-63
2022/03/03 05:49:39;;;;;;;15.48;9.57;;;-0.80;56.50;;;;;;5084917;28;20035;-63
2022/03/03 05:52:05;;;;;;;22.88;10.18;;;-0.80;56.50;;;;;;5084253;28;20020;-64
2022/03/03 05:54:31;;;;;;;17.80;9.77;;;-0.90;56.40;;;;;;5083250;28;20051;-63
2022/03/03 05:56:59;;;;;;;16.50;9.20;;;-1.00;56.50;;;;;;5080056;28;20111;-64
2022/03/03 05:59:25;;;;;;;19.65;10.27;;;-0.80;56.80;;;;;;5083896;28;20021;-63
2022/03/03 06:01:50;;;;;;;19.92;10.43;;;-1.00;56.70;;;;;;5084140;28;20032;-62
2022/03/03 06:04:16;;;;;;;17.40;9.80;;;-0.80;56.80;;;;;;5083630;28;20028;-63
2022/03/03 06:06:53;;;;;;;20.17;10.07;;;-0.90;56.70;;;;;;5083686;28;20045;-64
2022/03/03 06:09:29;;;;;;;17.20;8.50;;;-1.00;56.60;;;;;;5082096;28;20028;-63
2022/03/03 06:12:07;;;;;;;17.85;9.93;;;-1.00;56.60;;;;;;5082548;28;20024;-63
2022/03/03 06:14:53;;;;;;;20.27;9.85;;;-1.00;56.70;;;;;;5083877;28;20017;-63
2022/03/03 06:17:24;;;;;;;23.70;9.88;;;-0.90;57.10;;;;;;5082448;28;20439;-63
2022/03/03 06:19:51;;;;;;;16.20;9.35;;;-1.10;56.60;;;;;;5084421;28;20028;-62
2022/03/03 06:22:19;;;;;;;17.35;9.93;;;-1.10;56.70;;;;;;5080983;28;20032;-63
2022/03/03 06:24:45;;;;;;;18.70;10.07;;;-1.10;56.60;;;;;;5080576;28;20028;-63
2022/03/03 06:27:12;;;;;;;21.15;10.02;;;-1.00;56.80;;;;;;5073672;28;20092;-63
2022/03/03 06:29:40;;;;;;;19.35;9.05;;;-1.10;57.10;;;;;;5085358;28;20048;-63
2022/03/03 06:32:07;;;;;;;20.55;11.20;;;-1.10;57.20;;;;;;5090213;28;20028;-64
2022/03/03 06:34:33;;;;;;;20.20;10.73;;;-1.00;57.50;;;;;;5085526;28;20020;-64
2022/03/03 06:36:59;;;;;;;24.65;12.13;;;-0.80;57.70;;;;;;5083398;28;20029;-64
2022/03/03 06:39:24;;;;;;;31.42;14.50;;;-1.00;57.60;;;;;;5083420;28;20088;-64
2022/03/03 06:41:51;;;;;;;29.65;16.45;;;-0.90;57.70;;;;;;5074574;28;20066;-63
2022/03/03 06:44:17;;;;;;;32.33;16.30;;;-0.90;57.80;;;;;;5080969;28;20055;-63
2022/03/03 06:46:44;;;;;;;28.35;14.35;;;-0.80;57.90;;;;;;5081986;28;20032;-63
2022/03/03 06:49:12;;;;;;;27.08;13.90;;;-0.80;58.00;;;;;;5081164;28;20032;-63
2022/03/03 06:51:47;;;;;;;32.88;14.55;;;-0.70;58.00;;;;;;5073609;28;20028;-64
2022/03/03 06:54:16;;;;;;;25.88;14.52;;;-0.60;58.20;;;;;;5081894;28;20033;-64
2022/03/03 06:56:57;;;;;;;28.52;13.93;;;-0.50;58.30;;;;;;5069415;28;20046;-64
2022/03/03 06:59:26;;;;;;;27.85;14.43;;;-0.50;58.60;;;;;;5082199;28;20062;-63
2022/03/03 07:01:54;;;;;;;31.08;15.45;;;-0.40;58.50;;;;;;5084265;28;20032;-63
2022/03/03 07:04:21;;;;;;;31.35;16.52;;;-0.30;58.50;;;;;;5081333;28;20025;-63
2022/03/03 07:06:48;;;;;;;37.35;16.00;;;-0.20;58.60;;;;;;5081078;28;20023;-62
2022/03/03 07:09:15;;;;;;;33.03;15.13;;;-0.10;58.40;;;;;;5081765;28;20035;-64
2022/03/03 07:11:42;;;;;;;30.73;15.00;;;0.00;58.40;;;;;;5081266;28;20024;-63
2022/03/03 07:14:09;;;;;;;33.33;14.70;;;0.10;58.40;;;;;;5087901;28;20040;-63
2022/03/03 07:16:48;;;;;;;30.58;14.23;;;0.20;58.40;;;;;;5087803;28;20487;-62
2022/03/03 07:19:26;;;;;;;30.27;14.35;;;0.30;58.70;;;;;;5084866;28;20034;-63
2022/03/03 07:22:29;;;;;;;32.00;13.07;;;0.50;59.00;;;;;;5087885;28;20099;-63
2022/03/03 07:25:07;;;;;;;35.85;12.60;;;0.60;59.00;;;;;;5088237;28;20033;-63
2022/03/03 07:27:33;;;;;;;30.70;14.63;;;0.80;58.50;;;;;;5079152;28;20021;-63
2022/03/03 07:30:05;;;;;;;30.77;13.25;;;1.20;58.40;;;;;;5082684;28;20040;-63
2022/03/03 07:32:33;;;;;;;26.20;12.32;;;0.90;58.10;;;;;;5078907;28;20024;-62
2022/03/03 07:35:03;;;;;;;23.42;13.10;;;1.00;58.10;;;;;;5088476;28;20438;-63
2022/03/03 07:37:56;;;;;;;23.60;12.45;;;1.10;58.20;;;;;;5080397;28;20088;-64
2022/03/03 07:40:27;;;;;;;25.98;12.30;;;1.20;58.60;;;;;;5070565;28;20071;-63
2022/03/03 07:42:54;;;;;;;29.13;13.07;;;1.20;58.10;;;;;;5073884;28;20425;-63
2022/03/03 07:45:20;;;;;;;25.05;12.43;;;1.50;58.10;;;;;;5087644;28;20078;-62
2022/03/03 07:47:50;;;;;;;22.15;11.07;;;1.40;58.00;;;;;;5084554;28;20040;-63
2022/03/03 07:50:16;;;;;;;20.88;12.13;;;1.50;58.10;;;;;;5086408;28;20047;-63
2022/03/03 07:52:44;;;;;;;23.13;12.63;;;1.60;57.80;;;;;;5086765;28;20032;-63
2022/03/03 07:55:10;;;;;;;21.75;11.93;;;1.90;58.10;;;;;;5098405;28;20049;-64
2022/03/03 07:57:44;;;;;;;22.45;12.82;;;2.20;58.20;;;;;;5089964;28;20036;-64
2022/03/03 08:00:15;;;;;;;21.35;11.40;;;2.00;58.20;;;;;;5087637;28;20028;-63
2022/03/03 08:02:43;;;;;;;20.80;11.90;;;2.20;58.00;;;;;;5075721;28;20071;-63
2022/03/03 08:05:10;;;;;;;26.20;12.50;;;2.40;58.10;;;;;;5087890;28;20398;-63
2022/03/03 08:07:46;;;;;;;23.45;12.82;;;2.60;58.10;;;;;;5070712;28;20081;-63
2022/03/03 08:10:13;;;;;;;27.13;12.65;;;2.80;58.10;;;;;;5077544;28;20104;-63
2022/03/03 08:12:41;;;;;;;22.98;13.52;;;3.00;57.90;;;;;;5079846;28;20079;-63
2022/03/03 08:15:10;;;;;;;25.50;12.25;;;3.20;57.80;;;;;;5086648;28;20039;-63
2022/03/03 08:17:36;;;;;;;24.98;12.25;;;3.50;57.50;;;;;;5086050;28;20086;-63
2022/03/03 08:20:07;;;;;;;25.15;13.07;;;3.70;57.30;;;;;;5078275;28;20025;-63
2022/03/03 08:22:33;;;;;;;23.35;13.40;;;3.90;57.20;;;;;;5084003;28;20056;-63
2022/03/03 08:24:59;;;;;;;31.08;13.52;;;4.10;57.00;;;;;;5086674;28;20028;-63
2022/03/03 08:27:26;;;;;;;23.88;13.32;;;4.30;56.80;;;;;;5072345;28;20111;-63
2022/03/03 08:29:54;;;;;;;32.10;14.00;;;4.50;56.50;;;;;;5085174;28;20100;-62
2022/03/03 08:32:21;;;;;;;22.40;13.77;;;4.80;56.30;;;;;;5085430;28;20025;-63
2022/03/03 08:35:11;;;;;;;22.20;13.23;;;4.90;56.00;;;;;;5083179;28;20024;-63
2022/03/03 08:37:39;;;;;;;24.98;14.05;;;5.20;55.80;;;;;;5084294;28;20025;-64
2022/03/03 08:40:10;;;;;;;29.27;13.90;;;5.40;55.70;;;;;;5088356;28;20024;-63
2022/03/03 08:42:39;;;;;;;22.67;12.80;;;5.60;55.60;;;;;;5073470;28;20035;-64
2022/03/03 08:45:09;;;;;;;22.60;13.07;;;5.70;55.40;;;;;;5081845;28;20044;-63
2022/03/03 08:47:35;;;;;;;23.58;12.82;;;5.90;55.10;;;;;;5083195;28;20519;-63
2022/03/03 08:50:08;;;;;;;24.73;14.38;;;6.10;54.90;;;;;;5084727;28;20047;-63
2022/03/03 08:52:38;;;;;;;27.17;13.52;;;6.30;54.60;;;;;;5071834;28;20062;-64
2022/03/03 08:55:05;;;;;;;23.35;15.00;;;6.50;54.20;;;;;;5074138;28;20025;-62
2022/03/03 08:57:30;;;;;;;22.85;13.65;;;6.60;53.80;;;;;;5085409;28;20055;-64
2022/03/03 08:59:56;;;;;;;23.30;14.57;;;6.80;53.70;;;;;;5085130;28;20574;-63
2022/03/03 09:02:22;;;;;;;24.17;14.27;;;6.90;53.50;;;;;;5082596;28;20414;-65
2022/03/03 09:04:48;;;;;;;20.77;12.90;;;7.10;54.00;;;;;;5082939;28;20386;-64
2022/03/03 09:07:14;;;;;;;21.42;11.70;;;7.20;53.20;;;;;;5083273;28;20028;-64
2022/03/03 09:09:40;;;;;;;19.67;12.95;;;7.40;53.10;;;;;;5085413;28;20083;-64
2022/03/03 09:12:06;;;;;;;26.60;13.80;;;7.50;52.90;;;;;;5081338;28;20103;-64
2022/03/03 09:14:33;;;;;;;21.27;13.57;;;7.60;52.70;;;;;;5065699;28;20415;-63
2022/03/03 09:16:58;;;;;;;21.33;12.65;;;7.80;52.60;;;;;;5084571;28;20029;-64
2022/03/03 09:19:24;;;;;;;20.33;12.52;;;7.90;52.40;;;;;;5085155;28;20433;-65
2022/03/03 09:21:50;;;;;;;21.52;13.60;;;8.00;52.30;;;;;;5083708;28;20464;-64
2022/03/03 09:24:15;;;;;;;21.85;12.73;;;8.10;52.10;;;;;;5085816;28;20025;-65
2022/03/03 09:26:41;;;;;;;22.95;12.20;;;8.30;52.00;;;;;;5084389;28;20024;-65
2022/03/03 09:29:07;;;;;;;20.65;12.73;;;8.40;51.80;;;;;;5078826;28;20456;-64
2022/03/03 09:31:33;;;;;;;20.95;12.43;;;8.50;51.70;;;;;;5078152;28;20047;-64
2022/03/03 09:33:58;;;;;;;18.65;11.65;;;8.70;51.60;;;;;;5079345;28;20612;-64
2022/03/03 09:36:24;;;;;;;20.73;12.60;;;8.80;51.30;;;;;;5084232;28;20024;-65
2022/03/03 09:38:50;;;;;;;16.98;11.82;;;8.90;51.10;;;;;;5077788;28;20052;-66
2022/03/03 09:41:16;;;;;;;16.67;11.07;;;9.10;51.00;;;;;;5085411;28;20128;-65
2022/03/03 09:43:43;;;;;;;19.88;12.57;;;9.20;50.70;;;;;;4103758;28;20503;-64
2022/03/03 09:46:12;;;;;;;18.33;12.00;;;9.30;50.20;;;;;;4211493;28;20435;-64
2022/03/03 09:48:38;;;;;;;19.45;11.32;;;9.50;50.00;;;;;;5080075;28;20063;-64
2022/03/03 09:51:04;;;;;;;19.48;11.63;;;9.60;49.90;;;;;;5081285;28;20029;-65
2022/03/03 09:53:32;;;;;;;18.38;12.60;;;9.80;49.70;;;;;;5075639;28;20107;-66
2022/03/03 09:55:58;;;;;;;17.88;10.90;;;9.90;49.50;;;;;;5083878;28;20117;-63
2022/03/03 09:58:25;;;;;;;18.17;11.38;;;10.10;49.40;;;;;;5073827;28;20036;-63
2022/03/03 10:00:51;;;;;;;22.08;12.00;;;10.20;49.10;;;;;;5084474;28;20021;-62
2022/03/03 10:03:18;;;;;;;17.88;11.68;;;10.40;48.80;;;;;;5079318;28;20107;-62
2022/03/03 10:05:48;;;;;;;20.15;12.02;;;10.40;48.20;;;;;;5092201;28;20455;-64
2022/03/03 10:08:18;;;;;;;16.63;11.15;;;10.50;47.90;;;;;;5083590;28;20028;-64
2022/03/03 10:10:47;;;;;;;16.65;10.23;;;10.70;47.50;;;;;;5083948;28;20025;-63
2022/03/03 10:13:17;;;;;;;15.65;10.05;;;10.80;47.50;;;;;;5081687;28;20096;-63
2022/03/03 10:15:57;;;;;;;15.55;9.90;;;10.80;47.40;;;;;;5083441;28;20123;-63
2022/03/03 10:18:24;;;;;;;13.18;9.27;;;11.00;46.50;;;;;;5084447;28;20024;-63
2022/03/03 10:20:58;;;;;;;16.48;9.77;;;11.10;46.80;;;;;;5082578;28;20035;-62
2022/03/03 10:23:33;;;;;;;20.40;10.18;;;11.20;46.20;;;;;;5084132;28;20020;-62
2022/03/03 10:26:01;;;;;;;18.83;8.93;;;11.20;45.80;;;;;;5084869;28;20058;-63
2022/03/03 10:28:28;;;;;;;12.88;9.35;;;11.30;46.20;;;;;;5084036;28;20104;-64
2022/03/03 10:30:54;;;;;;;15.80;10.15;;;11.40;45.70;;;;;;5081577;28;20028;-63
2022/03/03 10:33:22;;;;;;;16.30;9.20;;;11.50;45.90;;;;;;5084040;28;20475;-64
2022/03/03 10:35:57;;;;;;;14.63;9.82;;;11.60;45.90;;;;;;5078769;28;20020;-62
2022/03/03 10:38:23;;;;;;;15.85;9.93;;;11.70;45.20;;;;;;5083653;28;20063;-62
2022/03/03 10:40:49;;;;;;;15.38;10.05;;;11.80;45.60;;;;;;5082380;28;20046;-62
2022/03/03 10:43:15;;;;;;;12.35;8.85;;;11.90;45.10;;;;;;5081991;28;20048;-62
2022/03/03 10:46:00;;;;;;;13.98;8.45;;;12.00;45.10;;;;;;5084168;28;20021;-63
2022/03/03 10:48:27;;;;;;;13.80;9.18;;;12.10;43.80;;;;;;5087365;28;20035;-63
2022/03/03 10:50:55;;;;;;;15.23;9.73;;;12.20;44.80;;;;;;5087847;28;20078;-62
2022/03/03 10:53:22;;;;;;;12.65;8.40;;;12.30;44.30;;;;;;5084217;28;20021;-63
2022/03/03 10:56:09;;;;;;;15.15;8.38;;;12.40;44.20;;;;;;5084695;28;20040;-62
2022/03/03 10:58:50;;;;;;;20.15;10.15;;;12.50;42.80;;;;;;5084143;28;20052;-64
2022/03/03 11:01:22;;;;;;;15.55;9.35;;;12.50;43.50;;;;;;5080624;28;20021;-61
2022/03/03 11:03:51;;;;;;;15.65;9.25;;;12.60;43.40;;;;;;5070539;28;20073;-62
2022/03/03 11:06:29;;;;;;;13.35;8.65;;;12.70;43.80;;;;;;5088198;28;20063;-61
2022/03/03 11:08:56;;;;;;;15.07;9.23;;;12.80;42.90;;;;;;5083032;28;20028;-62
2022/03/03 11:11:24;;;;;;;12.25;8.88;;;12.80;43.00;;;;;;5088450;28;20070;-61
2022/03/03 11:13:51;;;;;;;15.50;9.13;;;12.90;43.10;;;;;;5087258;28;20025;-61
2022/03/03 11:16:19;;;;;;;12.82;8.68;;;13.00;43.00;;;;;;5087964;28;20112;-64
2022/03/03 11:18:46;;;;;;;15.57;9.63;;;13.10;42.90;;;;;;5069838;28;20033;-61
2022/03/03 11:21:15;;;;;;;13.90;8.88;;;13.20;42.20;;;;;;5088550;28;20017;-61
2022/03/03 11:23:59;;;;;;;14.50;8.77;;;13.30;42.80;;;;;;5086973;28;20059;-61
2022/03/03 11:26:39;;;;;;;12.82;8.63;;;13.40;41.90;;;;;;5087310;28;20024;-63
2022/03/03 11:29:16;;;;;;;12.30;7.97;;;13.50;41.60;;;;;;5072338;28;20494;-62
2022/03/03 11:32:03;;;;;;;11.82;7.90;;;13.70;41.10;;;;;;5081540;28;20044;-63
2022/03/03 11:34:32;;;;;;;11.77;8.00;;;13.70;40.50;;;;;;5067413;28;20079;-63
2022/03/03 11:37:03;;;;;;;11.73;8.15;;;13.80;41.30;;;;;;5086935;28;20028;-61
2022/03/03 11:39:54;;;;;;;13.70;8.75;;;13.90;41.20;;;;;;5086317;28;20020;-62
2022/03/03 11:42:27;;;;;;;15.32;8.35;;;14.00;39.50;;;;;;5085553;28;20098;-62
2022/03/03 11:45:17;;;;;;;15.40;9.00;;;14.00;39.70;;;;;;5081494;28;20118;-62
2022/03/03 11:47:45;;;;;;;11.65;8.07;;;14.10;40.00;;;;;;5070128;28;20051;-62
2022/03/03 11:50:16;;;;;;;12.95;8.10;;;14.20;40.90;;;;;;5082624;28;20032;-62
2022/03/03 11:52:43;;;;;;;15.90;8.30;;;14.20;40.30;;;;;;5073129;28;20070;-61
2022/03/03 11:55:26;;;;;;;13.23;8.02;;;14.30;40.50;;;;;;5071985;28;20088;-62
2022/03/03 11:58:00;;;;;;;12.30;9.18;;;14.40;39.30;;;;;;5087871;28;20062;-62
2022/03/03 12:00:26;;;;;;;13.15;8.13;;;14.50;40.00;;;;;;5085971;28;20028;-62
2022/03/03 12:03:12;;;;;;;13.63;8.77;;;14.50;40.10;;;;;;5073097;28;20055;-62
2022/03/03 12:05:49;;;;;;;14.13;8.82;;;14.60;38.20;;;;;;5086142;28;20059;-64
2022/03/03 12:08:14;;;;;;;14.10;8.60;;;14.70;39.40;;;;;;5071199;28;20021;-61
2022/03/03 12:11:03;;;;;;;11.93;8.20;;;14.80;39.40;;;;;;5096002;28;20054;-62
2022/03/03 12:13:33;;;;;;;11.02;7.95;;;14.80;38.20;;;;;;5072800;28;20021;-61
2022/03/03 12:16:25;;;;;;;18.50;8.23;;;14.90;39.30;;;;;;5086984;28;20310;-64
2022/03/03 12:18:56;;;;;;;12.50;8.35;;;15.00;38.20;;;;;;5082356;28;20032;-63
2022/03/03 12:21:30;;;;;;;12.48;8.38;;;15.10;38.40;;;;;;5084423;28;20025;-63
2022/03/03 12:24:14;;;;;;;14.82;7.97;;;15.30;38.50;;;;;;5085938;28;20024;-61
2022/03/03 12:26:55;;;;;;;14.70;7.47;;;15.30;38.30;;;;;;5087279;28;20052;-63
2022/03/03 12:29:30;;;;;;;11.40;8.18;;;15.40;38.00;;;;;;5077761;28;20636;-62
2022/03/03 12:31:56;;;;;;;18.60;8.48;;;15.50;38.20;;;;;;5086282;28;20025;-62
2022/03/03 12:34:23;;;;;;;14.15;8.70;;;15.60;38.70;;;;;;5085519;28;20043;-63
2022/03/03 12:36:54;;;;;;;10.45;7.70;;;15.70;38.20;;;;;;5086370;28;20029;-62
2022/03/03 12:39:20;;;;;;;17.80;8.35;;;15.70;37.10;;;;;;5085778;28;20032;-63
2022/03/03 12:41:46;;;;;;;15.55;8.05;;;15.80;38.00;;;;;;5086218;28;20092;-62
2022/03/03 12:44:15;;;;;;;10.30;8.05;;;15.90;37.60;;;;;;5085448;28;20510;-62